sensor_id;sensor_type;location;lat;lon;timestamp;P1;durP1;ratioP1;P2;durP2;ratioP2
61373;SDS011;47242;48.158;-1.586;2023-06-10T04:31:05;19.70;;;12.85;;
61373;SDS011;47242;48.158;-1.586;2023-06-10T04:33:31;21.05;;;12.65;;
61373;SDS011;47242;48.158;-1.586;2023-06-10T04:35:56;24.02;;;13.77;;
61373;SDS011;47242;48.158;-1.586;2023-06-10T04:38:22;24.85;;;13.77;;
61373;SDS011;47242;48.158;-1.586;2023-06-10T04:40:48;21.65;;;13.80;;
61373;SDS011;47242;48.158;-1.586;2023-06-10T04:43:14;22.00;;;13.13;;
61373;SDS011;47242;48.158;-1.586;2023-06-10T04:45:39;21.92;;;12.45;;
61373;SDS011;47242;48.158;-1.586;2023-06-10T04:48:05;24.55;;;13.55;;
61373;SDS011;47242;48.158;-1.586;2023-06-10T04:50:32;22.30;;;14.18;;
61373;SDS011;47242;48.158;-1.586;2023-06-10T04:52:58;25.83;;;13.15;;
61373;SDS011;47242;48.158;-1.586;2023-06-10T04:55:24;24.00;;;13.82;;
61373;SDS011;47242;48.158;-1.586;2023-06-10T04:57:50;25.92;;;13.50;;
61373;SDS011;47242;48.158;-1.586;2023-06-10T05:00:16;23.38;;;13.35;;
61373;SDS011;47242;48.158;-1.586;2023-06-10T05:02:42;22.80;;;14.25;;
61373;SDS011;47242;48.158;-1.586;2023-06-10T05:05:08;26.13;;;14.35;;
61373;SDS011;47242;48.158;-1.586;2023-06-10T05:07:33;22.58;;;13.70;;
61373;SDS011;47242;48.158;-1.586;2023-06-10T05:09:59;24.02;;;14.00;;
61373;SDS011;47242;48.158;-1.586;2023-06-10T05:12:25;23.13;;;13.88;;
61373;SDS011;47242;48.158;-1.586;2023-06-10T05:14:51;26.73;;;13.77;;
61373;SDS011;47242;48.158;-1.586;2023-06-10T05:17:16;24.42;;;13.65;;
61373;SDS011;47242;48.158;-1.586;2023-06-10T05:19:42;24.48;;;14.30;;
61373;SDS011;47242;48.158;-1.586;2023-06-10T05:22:08;29.75;;;14.60;;
61373;SDS011;47242;48.158;-1.586;2023-06-10T05:24:34;24.58;;;14.48;;
61373;SDS011;47242;48.158;-1.586;2023-06-10T05:26:59;25.40;;;14.80;;
61373;SDS011;47242;48.158;-1.586;2023-06-10T05:29:25;23.10;;;14.63;;
61373;SDS011;47242;48.158;-1.586;2023-06-10T05:31:51;25.90;;;15.52;;
61373;SDS011;47242;48.158;-1.586;2023-06-10T05:34:16;26.20;;;14.32;;
61373;SDS011;47242;48.158;-1.586;2023-06-10T05:36:43;25.27;;;15.57;;
61373;SDS011;47242;48.158;-1.586;2023-06-10T05:39:09;25.05;;;15.27;;
61373;SDS011;47242;48.158;-1.586;2023-06-10T05:41:35;28.55;;;15.80;;
61373;SDS011;47242;48.158;-1.586;2023-06-10T05:44:01;27.27;;;15.75;;
61373;SDS011;47242;48.158;-1.586;2023-06-10T05:46:26;28.17;;;15.45;;
61373;SDS011;47242;48.158;-1.586;2023-06-10T05:48:52;29.17;;;15.05;;
61373;SDS011;47242;48.158;-1.586;2023-06-10T05:51:18;33.63;;;15.90;;
61373;SDS011;47242;48.158;-1.586;2023-06-10T05:53:43;32.47;;;15.95;;
61373;SDS011;47242;48.158;-1.586;2023-06-10T05:56:11;29.80;;;16.08;;
61373;SDS011;47242;48.158;-1.586;2023-06-10T05:58:37;33.13;;;16.55;;
61373;SDS011;47242;48.158;-1.586;2023-06-10T06:01:03;30.95;;;16.42;;
61373;SDS011;47242;48.158;-1.586;2023-06-10T06:03:29;34.47;;;16.30;;
61373;SDS011;47242;48.158;-1.586;2023-06-10T06:05:54;32.90;;;16.58;;
61373;SDS011;47242;48.158;-1.586;2023-06-10T06:08:20;27.77;;;16.25;;
61373;SDS011;47242;48.158;-1.586;2023-06-10T06:10:46;35.33;;;16.85;;
61373;SDS011;47242;48.158;-1.586;2023-06-10T06:13:12;37.58;;;18.05;;
61373;SDS011;47242;48.158;-1.586;2023-06-10T06:15:38;32.47;;;16.50;;
61373;SDS011;47242;48.158;-1.586;2023-06-10T06:18:04;36.60;;;17.00;;
61373;SDS011;47242;48.158;-1.586;2023-06-10T06:20:29;32.97;;;16.48;;
61373;SDS011;47242;48.158;-1.586;2023-06-10T06:22:55;31.65;;;16.50;;
61373;SDS011;47242;48.158;-1.586;2023-06-10T06:25:21;27.83;;;15.88;;
61373;SDS011;47242;48.158;-1.586;2023-06-10T06:27:46;30.50;;;16.33;;
61373;SDS011;47242;48.158;-1.586;2023-06-10T06:30:12;35.65;;;16.95;;
61373;SDS011;47242;48.158;-1.586;2023-06-10T06:32:38;32.08;;;16.83;;
61373;SDS011;47242;48.158;-1.586;2023-06-10T06:35:03;34.55;;;16.67;;
61373;SDS011;47242;48.158;-1.586;2023-06-10T06:37:32;31.80;;;16.27;;
61373;SDS011;47242;48.158;-1.586;2023-06-10T06:39:58;32.58;;;15.43;;
61373;SDS011;47242;48.158;-1.586;2023-06-10T06:42:24;35.70;;;16.73;;
61373;SDS011;47242;48.158;-1.586;2023-06-10T06:44:50;30.77;;;16.30;;
61373;SDS011;47242;48.158;-1.586;2023-06-10T06:47:15;30.42;;;16.55;;
61373;SDS011;47242;48.158;-1.586;2023-06-10T06:49:45;34.40;;;16.10;;
61373;SDS011;47242;48.158;-1.586;2023-06-10T06:52:11;33.50;;;16.10;;
61373;SDS011;47242;48.158;-1.586;2023-06-10T06:54:37;30.52;;;16.55;;
61373;SDS011;47242;48.158;-1.586;2023-06-10T06:57:03;32.63;;;16.75;;
61373;SDS011;47242;48.158;-1.586;2023-06-10T06:59:29;28.33;;;16.10;;
61373;SDS011;47242;48.158;-1.586;2023-06-10T07:01:54;32.65;;;16.85;;
61373;SDS011;47242;48.158;-1.586;2023-06-10T07:04:20;35.35;;;16.42;;
61373;SDS011;47242;48.158;-1.586;2023-06-10T07:06:47;31.33;;;16.65;;
61373;SDS011;47242;48.158;-1.586;2023-06-10T07:09:13;34.88;;;16.85;;
61373;SDS011;47242;48.158;-1.586;2023-06-10T07:11:39;33.28;;;16.75;;
61373;SDS011;47242;48.158;-1.586;2023-06-10T07:14:05;33.92;;;17.48;;
61373;SDS011;47242;48.158;-1.586;2023-06-10T07:16:31;32.60;;;15.88;;
61373;SDS011;47242;48.158;-1.586;2023-06-10T07:18:59;32.65;;;17.33;;
61373;SDS011;47242;48.158;-1.586;2023-06-10T07:21:24;32.40;;;16.50;;
61373;SDS011;47242;48.158;-1.586;2023-06-10T07:23:50;33.67;;;17.83;;
61373;SDS011;47242;48.158;-1.586;2023-06-10T07:26:18;27.98;;;16.52;;
61373;SDS011;47242;48.158;-1.586;2023-06-10T07:28:44;31.05;;;17.52;;
61373;SDS011;47242;48.158;-1.586;2023-06-10T07:31:10;35.88;;;18.23;;
61373;SDS011;47242;48.158;-1.586;2023-06-10T07:33:37;29.27;;;16.80;;
61373;SDS011;47242;48.158;-1.586;2023-06-10T07:36:04;35.83;;;17.40;;
61373;SDS011;47242;48.158;-1.586;2023-06-10T07:38:30;32.05;;;17.00;;
61373;SDS011;47242;48.158;-1.586;2023-06-10T07:40:56;31.50;;;15.60;;
61373;SDS011;47242;48.158;-1.586;2023-06-10T07:43:22;29.85;;;17.45;;
61373;SDS011;47242;48.158;-1.586;2023-06-10T07:45:49;32.70;;;17.23;;
61373;SDS011;47242;48.158;-1.586;2023-06-10T07:48:14;32.55;;;17.38;;
61373;SDS011;47242;48.158;-1.586;2023-06-10T07:50:40;31.65;;;17.45;;
61373;SDS011;47242;48.158;-1.586;2023-06-10T07:53:05;31.55;;;16.80;;
61373;SDS011;47242;48.158;-1.586;2023-06-10T07:55:34;32.80;;;16.42;;
61373;SDS011;47242;48.158;-1.586;2023-06-10T07:57:59;31.55;;;16.35;;
61373;SDS011;47242;48.158;-1.586;2023-06-10T08:00:25;32.38;;;16.40;;
61373;SDS011;47242;48.158;-1.586;2023-06-10T08:02:51;29.73;;;16.15;;
61373;SDS011;47242;48.158;-1.586;2023-06-10T08:05:17;33.15;;;16.20;;
61373;SDS011;47242;48.158;-1.586;2023-06-10T08:07:42;32.53;;;16.20;;
61373;SDS011;47242;48.158;-1.586;2023-06-10T08:10:08;30.73;;;16.63;;
61373;SDS011;47242;48.158;-1.586;2023-06-10T08:12:35;30.85;;;16.42;;
61373;SDS011;47242;48.158;-1.586;2023-06-10T08:15:01;27.80;;;16.50;;
61373;SDS011;47242;48.158;-1.586;2023-06-10T08:17:29;29.42;;;15.52;;
61373;SDS011;47242;48.158;-1.586;2023-06-10T08:19:55;29.88;;;16.20;;
61373;SDS011;47242;48.158;-1.586;2023-06-10T08:22:20;28.25;;;16.27;;
61373;SDS011;47242;48.158;-1.586;2023-06-10T08:24:46;32.67;;;15.82;;
61373;SDS011;47242;48.158;-1.586;2023-06-10T08:27:12;31.48;;;16.25;;
61373;SDS011;47242;48.158;-1.586;2023-06-10T08:29:37;29.73;;;16.15;;
61373;SDS011;47242;48.158;-1.586;2023-06-10T08:32:04;30.35;;;15.90;;
61373;SDS011;47242;48.158;-1.586;2023-06-10T08:34:29;29.35;;;16.25;;
61373;SDS011;47242;48.158;-1.586;2023-06-10T08:36:55;31.45;;;16.30;;
61373;SDS011;47242;48.158;-1.586;2023-06-10T08:39:21;32.22;;;16.42;;
61373;SDS011;47242;48.158;-1.586;2023-06-10T08:42:04;27.02;;;15.93;;
61373;SDS011;47242;48.158;-1.586;2023-06-10T08:44:49;28.30;;;16.08;;
61373;SDS011;47242;48.158;-1.586;2023-06-10T08:47:24;24.92;;;15.25;;
61373;SDS011;47242;48.158;-1.586;2023-06-10T08:49:50;27.40;;;16.52;;
61373;SDS011;47242;48.158;-1.586;2023-06-10T08:52:18;27.35;;;16.95;;
61373;SDS011;47242;48.158;-1.586;2023-06-10T08:54:49;27.40;;;16.02;;
61373;SDS011;47242;48.158;-1.586;2023-06-10T08:57:19;25.33;;;15.32;;
61373;SDS011;47242;48.158;-1.586;2023-06-10T08:59:46;25.95;;;16.27;;
61373;SDS011;47242;48.158;-1.586;2023-06-10T09:02:13;28.15;;;16.42;;
61373;SDS011;47242;48.158;-1.586;2023-06-10T09:04:41;24.35;;;15.30;;
61373;SDS011;47242;48.158;-1.586;2023-06-10T09:07:09;27.17;;;15.85;;
61373;SDS011;47242;48.158;-1.586;2023-06-10T09:09:35;25.25;;;16.60;;
61373;SDS011;47242;48.158;-1.586;2023-06-10T09:12:02;26.00;;;16.17;;
61373;SDS011;47242;48.158;-1.586;2023-06-10T09:14:28;28.95;;;16.55;;
61373;SDS011;47242;48.158;-1.586;2023-06-10T09:16:54;25.77;;;17.17;;
61373;SDS011;47242;48.158;-1.586;2023-06-10T09:19:23;23.73;;;16.23;;
61373;SDS011;47242;48.158;-1.586;2023-06-10T09:21:50;24.63;;;15.40;;
61373;SDS011;47242;48.158;-1.586;2023-06-10T09:24:15;24.73;;;16.80;;
61373;SDS011;47242;48.158;-1.586;2023-06-10T09:26:42;27.20;;;17.20;;
61373;SDS011;47242;48.158;-1.586;2023-06-10T09:29:08;25.70;;;17.05;;
61373;SDS011;47242;48.158;-1.586;2023-06-10T09:31:36;26.27;;;17.13;;
61373;SDS011;47242;48.158;-1.586;2023-06-10T09:36:37;25.38;;;17.42;;
61373;SDS011;47242;48.158;-1.586;2023-06-10T09:39:03;28.48;;;18.85;;
61373;SDS011;47242;48.158;-1.586;2023-06-10T09:41:33;25.02;;;18.63;;
61373;SDS011;47242;48.158;-1.586;2023-06-10T09:44:00;27.15;;;18.88;;
61373;SDS011;47242;48.158;-1.586;2023-06-10T09:46:30;25.65;;;17.00;;
61373;SDS011;47242;48.158;-1.586;2023-06-10T09:48:59;25.63;;;17.58;;
61373;SDS011;47242;48.158;-1.586;2023-06-10T09:51:25;25.80;;;17.73;;
61373;SDS011;47242;48.158;-1.586;2023-06-10T09:53:51;26.20;;;17.75;;
61373;SDS011;47242;48.158;-1.586;2023-06-10T09:56:17;29.33;;;18.83;;
61373;SDS011;47242;48.158;-1.586;2023-06-10T09:58:44;28.27;;;18.58;;
61373;SDS011;47242;48.158;-1.586;2023-06-10T10:01:11;29.35;;;18.77;;
61373;SDS011;47242;48.158;-1.586;2023-06-10T10:03:45;25.73;;;18.63;;
61373;SDS011;47242;48.158;-1.586;2023-06-10T10:06:12;32.72;;;19.20;;
61373;SDS011;47242;48.158;-1.586;2023-06-10T10:08:40;30.40;;;19.85;;
61373;SDS011;47242;48.158;-1.586;2023-06-10T10:11:05;26.30;;;18.67;;
61373;SDS011;47242;48.158;-1.586;2023-06-10T10:13:32;26.30;;;18.55;;
61373;SDS011;47242;48.158;-1.586;2023-06-10T10:16:01;27.23;;;18.73;;
61373;SDS011;47242;48.158;-1.586;2023-06-10T10:18:29;25.08;;;18.30;;
61373;SDS011;47242;48.158;-1.586;2023-06-10T10:20:57;29.52;;;18.50;;
61373;SDS011;47242;48.158;-1.586;2023-06-10T10:23:34;26.40;;;17.77;;
61373;SDS011;47242;48.158;-1.586;2023-06-10T10:26:05;25.65;;;18.05;;
61373;SDS011;47242;48.158;-1.586;2023-06-10T10:28:37;23.73;;;17.30;;
61373;SDS011;47242;48.158;-1.586;2023-06-10T10:31:10;22.30;;;16.63;;
61373;SDS011;47242;48.158;-1.586;2023-06-10T10:33:42;22.20;;;15.95;;
61373;SDS011;47242;48.158;-1.586;2023-06-10T10:36:16;26.48;;;18.38;;
61373;SDS011;47242;48.158;-1.586;2023-06-10T10:38:43;25.73;;;17.85;;
61373;SDS011;47242;48.158;-1.586;2023-06-10T10:41:13;23.10;;;16.85;;
61373;SDS011;47242;48.158;-1.586;2023-06-10T10:43:39;18.17;;;14.82;;
61373;SDS011;47242;48.158;-1.586;2023-06-10T10:46:09;20.65;;;15.60;;
61373;SDS011;47242;48.158;-1.586;2023-06-10T10:48:38;21.17;;;16.33;;
61373;SDS011;47242;48.158;-1.586;2023-06-10T10:51:06;20.05;;;15.73;;
61373;SDS011;47242;48.158;-1.586;2023-06-10T10:53:32;17.73;;;14.32;;
61373;SDS011;47242;48.158;-1.586;2023-06-10T10:58:33;21.00;;;14.50;;
61373;SDS011;47242;48.158;-1.586;2023-06-10T11:00:59;20.90;;;14.55;;
61373;SDS011;47242;48.158;-1.586;2023-06-10T11:03:35;18.40;;;14.82;;
61373;SDS011;47242;48.158;-1.586;2023-06-10T11:06:12;18.25;;;14.68;;
61373;SDS011;47242;48.158;-1.586;2023-06-10T11:11:18;20.13;;;14.48;;
61373;SDS011;47242;48.158;-1.586;2023-06-10T11:16:29;20.38;;;16.17;;
61373;SDS011;47242;48.158;-1.586;2023-06-10T11:19:02;20.20;;;15.82;;
61373;SDS011;47242;48.158;-1.586;2023-06-10T11:21:28;21.90;;;16.48;;
61373;SDS011;47242;48.158;-1.586;2023-06-10T11:23:54;22.20;;;15.10;;
61373;SDS011;47242;48.158;-1.586;2023-06-10T11:31:24;20.55;;;15.55;;
61373;SDS011;47242;48.158;-1.586;2023-06-10T11:34:00;19.80;;;15.30;;
61373;SDS011;47242;48.158;-1.586;2023-06-10T11:36:28;22.85;;;16.05;;
61373;SDS011;47242;48.158;-1.586;2023-06-10T11:39:01;19.98;;;14.93;;
61373;SDS011;47242;48.158;-1.586;2023-06-10T11:41:29;22.95;;;15.73;;
61373;SDS011;47242;48.158;-1.586;2023-06-10T11:43:56;21.13;;;15.75;;
61373;SDS011;47242;48.158;-1.586;2023-06-10T11:46:29;23.05;;;16.05;;
61373;SDS011;47242;48.158;-1.586;2023-06-10T11:48:56;21.88;;;15.30;;
61373;SDS011;47242;48.158;-1.586;2023-06-10T11:51:25;22.05;;;15.40;;
61373;SDS011;47242;48.158;-1.586;2023-06-10T11:53:52;18.33;;;14.60;;
61373;SDS011;47242;48.158;-1.586;2023-06-10T11:56:19;20.15;;;15.27;;
61373;SDS011;47242;48.158;-1.586;2023-06-10T11:58:46;21.20;;;16.08;;
61373;SDS011;47242;48.158;-1.586;2023-06-10T12:01:21;21.05;;;14.50;;
61373;SDS011;47242;48.158;-1.586;2023-06-10T12:03:48;17.88;;;14.05;;
61373;SDS011;47242;48.158;-1.586;2023-06-10T12:06:21;18.80;;;13.30;;
61373;SDS011;47242;48.158;-1.586;2023-06-10T12:08:47;17.70;;;13.07;;
61373;SDS011;47242;48.158;-1.586;2023-06-10T12:11:12;15.68;;;13.13;;
61373;SDS011;47242;48.158;-1.586;2023-06-10T12:13:38;19.95;;;13.52;;
61373;SDS011;47242;48.158;-1.586;2023-06-10T12:16:14;15.23;;;12.35;;
61373;SDS011;47242;48.158;-1.586;2023-06-10T12:18:42;16.77;;;12.52;;
61373;SDS011;47242;48.158;-1.586;2023-06-10T12:21:16;15.52;;;11.98;;
61373;SDS011;47242;48.158;-1.586;2023-06-10T12:24:01;16.75;;;12.73;;
61373;SDS011;47242;48.158;-1.586;2023-06-10T12:26:40;17.20;;;12.60;;
61373;SDS011;47242;48.158;-1.586;2023-06-10T12:29:28;17.17;;;12.85;;
61373;SDS011;47242;48.158;-1.586;2023-06-10T12:31:58;15.07;;;11.45;;
61373;SDS011;47242;48.158;-1.586;2023-06-10T12:34:31;16.77;;;12.25;;
61373;SDS011;47242;48.158;-1.586;2023-06-10T12:36:58;15.85;;;12.15;;
61373;SDS011;47242;48.158;-1.586;2023-06-10T12:39:24;14.52;;;11.55;;
61373;SDS011;47242;48.158;-1.586;2023-06-10T12:41:50;16.42;;;12.93;;
61373;SDS011;47242;48.158;-1.586;2023-06-10T12:44:17;14.85;;;11.57;;
61373;SDS011;47242;48.158;-1.586;2023-06-10T12:46:42;15.63;;;12.15;;
61373;SDS011;47242;48.158;-1.586;2023-06-10T12:49:08;16.58;;;12.52;;
61373;SDS011;47242;48.158;-1.586;2023-06-10T12:51:43;13.55;;;11.75;;
61373;SDS011;47242;48.158;-1.586;2023-06-10T12:54:09;12.85;;;10.95;;
61373;SDS011;47242;48.158;-1.586;2023-06-10T12:56:35;13.98;;;10.77;;
61373;SDS011;47242;48.158;-1.586;2023-06-10T12:59:01;14.00;;;10.65;;
61373;SDS011;47242;48.158;-1.586;2023-06-10T13:01:29;13.05;;;10.88;;
61373;SDS011;47242;48.158;-1.586;2023-06-10T13:03:56;15.93;;;11.57;;
61373;SDS011;47242;48.158;-1.586;2023-06-10T13:06:22;13.52;;;10.50;;
61373;SDS011;47242;48.158;-1.586;2023-06-10T13:08:48;13.85;;;10.90;;
61373;SDS011;47242;48.158;-1.586;2023-06-10T13:11:13;12.32;;;9.90;;
61373;SDS011;47242;48.158;-1.586;2023-06-10T13:13:39;14.60;;;11.00;;
61373;SDS011;47242;48.158;-1.586;2023-06-10T13:16:05;14.23;;;11.18;;
61373;SDS011;47242;48.158;-1.586;2023-06-10T13:18:32;12.27;;;9.88;;
61373;SDS011;47242;48.158;-1.586;2023-06-10T13:21:05;13.55;;;9.90;;
61373;SDS011;47242;48.158;-1.586;2023-06-10T13:23:31;11.48;;;9.07;;
61373;SDS011;47242;48.158;-1.586;2023-06-10T13:25:57;11.80;;;9.32;;
61373;SDS011;47242;48.158;-1.586;2023-06-10T13:28:23;11.40;;;9.43;;
61373;SDS011;47242;48.158;-1.586;2023-06-10T13:30:49;13.77;;;9.48;;
61373;SDS011;47242;48.158;-1.586;2023-06-10T13:33:15;13.35;;;10.15;;
61373;SDS011;47242;48.158;-1.586;2023-06-10T13:35:40;11.63;;;9.43;;
61373;SDS011;47242;48.158;-1.586;2023-06-10T13:38:06;13.60;;;9.90;;
61373;SDS011;47242;48.158;-1.586;2023-06-10T13:40:32;12.43;;;8.80;;
61373;SDS011;47242;48.158;-1.586;2023-06-10T13:42:58;11.85;;;9.10;;
61373;SDS011;47242;48.158;-1.586;2023-06-10T13:45:23;11.48;;;8.63;;
61373;SDS011;47242;48.158;-1.586;2023-06-10T13:47:49;11.65;;;9.07;;
61373;SDS011;47242;48.158;-1.586;2023-06-10T13:50:15;11.50;;;8.93;;
61373;SDS011;47242;48.158;-1.586;2023-06-10T13:52:41;11.57;;;8.85;;
61373;SDS011;47242;48.158;-1.586;2023-06-10T13:55:07;12.10;;;8.85;;
61373;SDS011;47242;48.158;-1.586;2023-06-10T13:57:33;13.02;;;8.55;;
61373;SDS011;47242;48.158;-1.586;2023-06-10T13:59:59;9.52;;;8.18;;
61373;SDS011;47242;48.158;-1.586;2023-06-10T14:02:24;10.50;;;8.15;;
61373;SDS011;47242;48.158;-1.586;2023-06-10T14:04:50;9.68;;;7.18;;
61373;SDS011;47242;48.158;-1.586;2023-06-10T14:07:16;8.88;;;6.93;;
61373;SDS011;47242;48.158;-1.586;2023-06-10T14:09:42;8.95;;;7.97;;
61373;SDS011;47242;48.158;-1.586;2023-06-10T14:12:08;11.65;;;9.23;;
61373;SDS011;47242;48.158;-1.586;2023-06-10T14:14:34;10.25;;;7.82;;
61373;SDS011;47242;48.158;-1.586;2023-06-10T14:17:01;9.10;;;7.40;;
61373;SDS011;47242;48.158;-1.586;2023-06-10T14:19:29;9.80;;;7.55;;
61373;SDS011;47242;48.158;-1.586;2023-06-10T14:21:54;9.98;;;7.93;;
61373;SDS011;47242;48.158;-1.586;2023-06-10T14:24:20;12.20;;;8.00;;
61373;SDS011;47242;48.158;-1.586;2023-06-10T14:26:46;9.15;;;7.63;;
61373;SDS011;47242;48.158;-1.586;2023-06-10T14:29:12;10.10;;;8.15;;
61373;SDS011;47242;48.158;-1.586;2023-06-10T14:31:39;10.65;;;7.75;;
61373;SDS011;47242;48.158;-1.586;2023-06-10T14:34:05;9.88;;;7.95;;
61373;SDS011;47242;48.158;-1.586;2023-06-10T14:36:32;10.15;;;7.80;;
61373;SDS011;47242;48.158;-1.586;2023-06-10T14:38:58;11.13;;;7.60;;
61373;SDS011;47242;48.158;-1.586;2023-06-10T14:41:24;8.98;;;7.53;;
61373;SDS011;47242;48.158;-1.586;2023-06-10T14:43:53;8.93;;;7.03;;
61373;SDS011;47242;48.158;-1.586;2023-06-10T14:46:18;10.20;;;7.72;;
61373;SDS011;47242;48.158;-1.586;2023-06-10T14:48:47;8.57;;;6.97;;
61373;SDS011;47242;48.158;-1.586;2023-06-10T14:51:13;10.07;;;7.03;;
61373;SDS011;47242;48.158;-1.586;2023-06-10T14:53:39;9.05;;;7.18;;
61373;SDS011;47242;48.158;-1.586;2023-06-10T14:56:04;8.80;;;6.88;;
61373;SDS011;47242;48.158;-1.586;2023-06-10T14:58:30;8.88;;;7.07;;
61373;SDS011;47242;48.158;-1.586;2023-06-10T15:00:56;8.65;;;6.88;;
61373;SDS011;47242;48.158;-1.586;2023-06-10T15:03:21;9.95;;;7.50;;
61373;SDS011;47242;48.158;-1.586;2023-06-10T15:05:47;7.75;;;6.65;;
61373;SDS011;47242;48.158;-1.586;2023-06-10T15:08:13;9.07;;;7.03;;
61373;SDS011;47242;48.158;-1.586;2023-06-10T15:10:38;7.57;;;6.28;;
61373;SDS011;47242;48.158;-1.586;2023-06-10T15:13:04;10.23;;;6.88;;
61373;SDS011;47242;48.158;-1.586;2023-06-10T15:15:30;10.68;;;6.90;;
61373;SDS011;47242;48.158;-1.586;2023-06-10T15:17:56;11.93;;;6.93;;
61373;SDS011;47242;48.158;-1.586;2023-06-10T15:20:21;8.50;;;6.68;;
61373;SDS011;47242;48.158;-1.586;2023-06-10T15:22:47;10.25;;;7.05;;
61373;SDS011;47242;48.158;-1.586;2023-06-10T15:25:13;9.93;;;7.22;;
61373;SDS011;47242;48.158;-1.586;2023-06-10T15:27:39;9.07;;;6.80;;
61373;SDS011;47242;48.158;-1.586;2023-06-10T15:30:04;8.10;;;6.95;;
61373;SDS011;47242;48.158;-1.586;2023-06-10T15:32:30;10.65;;;7.22;;
61373;SDS011;47242;48.158;-1.586;2023-06-10T15:34:56;10.00;;;7.00;;
61373;SDS011;47242;48.158;-1.586;2023-06-10T15:37:22;7.80;;;6.35;;
61373;SDS011;47242;48.158;-1.586;2023-06-10T15:39:47;9.15;;;6.72;;
61373;SDS011;47242;48.158;-1.586;2023-06-10T15:42:13;8.23;;;6.75;;
61373;SDS011;47242;48.158;-1.586;2023-06-10T15:44:39;10.15;;;6.90;;
61373;SDS011;47242;48.158;-1.586;2023-06-10T15:47:04;10.25;;;7.10;;
61373;SDS011;47242;48.158;-1.586;2023-06-10T15:49:30;8.50;;;6.68;;
61373;SDS011;47242;48.158;-1.586;2023-06-10T15:51:56;8.90;;;7.07;;
61373;SDS011;47242;48.158;-1.586;2023-06-10T15:54:21;8.65;;;6.68;;
61373;SDS011;47242;48.158;-1.586;2023-06-10T15:56:47;9.07;;;6.95;;
61373;SDS011;47242;48.158;-1.586;2023-06-10T15:59:12;8.88;;;6.60;;
61373;SDS011;47242;48.158;-1.586;2023-06-10T16:01:38;7.95;;;5.88;;
61373;SDS011;47242;48.158;-1.586;2023-06-10T16:04:04;7.68;;;6.32;;
61373;SDS011;47242;48.158;-1.586;2023-06-10T16:06:29;7.97;;;6.35;;
61373;SDS011;47242;48.158;-1.586;2023-06-10T16:08:55;7.93;;;6.38;;
61373;SDS011;47242;48.158;-1.586;2023-06-10T16:11:22;9.63;;;6.70;;
61373;SDS011;47242;48.158;-1.586;2023-06-10T16:13:48;8.93;;;7.35;;
61373;SDS011;47242;48.158;-1.586;2023-06-10T16:16:13;12.63;;;6.78;;
61373;SDS011;47242;48.158;-1.586;2023-06-10T16:18:39;8.27;;;6.82;;
61373;SDS011;47242;48.158;-1.586;2023-06-10T16:21:05;9.38;;;7.22;;
61373;SDS011;47242;48.158;-1.586;2023-06-10T16:23:30;8.00;;;6.65;;
61373;SDS011;47242;48.158;-1.586;2023-06-10T16:25:56;13.25;;;7.40;;
61373;SDS011;47242;48.158;-1.586;2023-06-10T16:28:22;9.30;;;6.78;;
61373;SDS011;47242;48.158;-1.586;2023-06-10T16:30:48;9.68;;;6.53;;
61373;SDS011;47242;48.158;-1.586;2023-06-10T16:33:13;10.43;;;6.82;;
61373;SDS011;47242;48.158;-1.586;2023-06-10T16:35:39;8.98;;;6.78;;
61373;SDS011;47242;48.158;-1.586;2023-06-10T16:38:04;11.40;;;6.55;;
61373;SDS011;47242;48.158;-1.586;2023-06-10T16:40:30;9.35;;;6.47;;
61373;SDS011;47242;48.158;-1.586;2023-06-10T16:42:56;8.30;;;6.15;;
61373;SDS011;47242;48.158;-1.586;2023-06-10T16:45:22;8.23;;;6.40;;
61373;SDS011;47242;48.158;-1.586;2023-06-10T16:47:47;9.57;;;6.10;;
61373;SDS011;47242;48.158;-1.586;2023-06-10T16:50:13;7.63;;;6.10;;
61373;SDS011;47242;48.158;-1.586;2023-06-10T16:52:38;8.98;;;6.57;;
61373;SDS011;47242;48.158;-1.586;2023-06-10T16:55:04;9.52;;;5.80;;
61373;SDS011;47242;48.158;-1.586;2023-06-10T16:57:30;7.97;;;6.10;;
61373;SDS011;47242;48.158;-1.586;2023-06-10T16:59:56;8.05;;;6.00;;
61373;SDS011;47242;48.158;-1.586;2023-06-10T17:02:21;8.18;;;5.47;;
61373;SDS011;47242;48.158;-1.586;2023-06-10T17:04:47;9.25;;;6.22;;
61373;SDS011;47242;48.158;-1.586;2023-06-10T17:07:13;8.55;;;5.22;;
61373;SDS011;47242;48.158;-1.586;2023-06-10T17:09:39;9.82;;;5.90;;
61373;SDS011;47242;48.158;-1.586;2023-06-10T17:12:04;8.40;;;5.60;;
61373;SDS011;47242;48.158;-1.586;2023-06-10T17:14:31;9.48;;;5.88;;
61373;SDS011;47242;48.158;-1.586;2023-06-10T17:16:56;7.15;;;5.40;;
61373;SDS011;47242;48.158;-1.586;2023-06-10T17:19:23;8.48;;;5.78;;
61373;SDS011;47242;48.158;-1.586;2023-06-10T17:21:50;7.72;;;5.22;;
61373;SDS011;47242;48.158;-1.586;2023-06-10T17:24:15;8.07;;;5.78;;
61373;SDS011;47242;48.158;-1.586;2023-06-10T17:26:41;7.45;;;5.05;;
61373;SDS011;47242;48.158;-1.586;2023-06-10T17:29:06;8.13;;;6.00;;
61373;SDS011;47242;48.158;-1.586;2023-06-10T17:31:32;7.78;;;5.43;;
61373;SDS011;47242;48.158;-1.586;2023-06-10T17:33:58;7.38;;;5.47;;
61373;SDS011;47242;48.158;-1.586;2023-06-10T17:36:23;8.55;;;5.63;;
61373;SDS011;47242;48.158;-1.586;2023-06-10T17:38:49;9.13;;;6.05;;
61373;SDS011;47242;48.158;-1.586;2023-06-10T17:41:15;7.60;;;5.63;;
61373;SDS011;47242;48.158;-1.586;2023-06-10T17:43:40;7.93;;;5.60;;
61373;SDS011;47242;48.158;-1.586;2023-06-10T17:46:06;7.15;;;5.28;;
61373;SDS011;47242;48.158;-1.586;2023-06-10T17:48:32;8.07;;;5.65;;
61373;SDS011;47242;48.158;-1.586;2023-06-10T17:50:57;7.95;;;5.22;;
61373;SDS011;47242;48.158;-1.586;2023-06-10T17:53:23;7.50;;;5.32;;
61373;SDS011;47242;48.158;-1.586;2023-06-10T17:55:48;7.82;;;5.40;;
61373;SDS011;47242;48.158;-1.586;2023-06-10T17:58:14;6.97;;;5.30;;
61373;SDS011;47242;48.158;-1.586;2023-06-10T18:00:40;7.20;;;5.55;;
61373;SDS011;47242;48.158;-1.586;2023-06-10T18:03:06;6.75;;;5.13;;
61373;SDS011;47242;48.158;-1.586;2023-06-10T18:05:31;8.50;;;5.78;;
61373;SDS011;47242;48.158;-1.586;2023-06-10T18:07:57;6.90;;;5.13;;
61373;SDS011;47242;48.158;-1.586;2023-06-10T18:10:22;8.00;;;5.25;;
61373;SDS011;47242;48.158;-1.586;2023-06-10T18:12:48;9.73;;;5.38;;
61373;SDS011;47242;48.158;-1.586;2023-06-10T18:15:13;8.02;;;5.45;;
61373;SDS011;47242;48.158;-1.586;2023-06-10T18:17:39;8.55;;;5.75;;
61373;SDS011;47242;48.158;-1.586;2023-06-10T18:20:05;7.00;;;5.30;;
61373;SDS011;47242;48.158;-1.586;2023-06-10T18:22:31;7.25;;;5.05;;
61373;SDS011;47242;48.158;-1.586;2023-06-10T18:24:57;7.40;;;5.47;;
61373;SDS011;47242;48.158;-1.586;2023-06-10T18:27:23;6.88;;;5.00;;
61373;SDS011;47242;48.158;-1.586;2023-06-10T18:29:49;7.88;;;4.97;;
61373;SDS011;47242;48.158;-1.586;2023-06-10T18:32:15;7.40;;;4.90;;
61373;SDS011;47242;48.158;-1.586;2023-06-10T18:34:40;8.20;;;5.72;;
61373;SDS011;47242;48.158;-1.586;2023-06-10T18:37:06;7.53;;;5.50;;
61373;SDS011;47242;48.158;-1.586;2023-06-10T18:39:33;8.57;;;5.43;;
61373;SDS011;47242;48.158;-1.586;2023-06-10T18:42:00;7.45;;;5.30;;
61373;SDS011;47242;48.158;-1.586;2023-06-10T18:44:26;9.25;;;5.60;;
61373;SDS011;47242;48.158;-1.586;2023-06-10T18:46:52;7.90;;;5.10;;
61373;SDS011;47242;48.158;-1.586;2023-06-10T18:49:18;12.38;;;5.70;;
61373;SDS011;47242;48.158;-1.586;2023-06-10T18:51:44;8.98;;;5.45;;
61373;SDS011;47242;48.158;-1.586;2023-06-10T18:54:09;8.43;;;5.80;;
61373;SDS011;47242;48.158;-1.586;2023-06-10T18:56:35;8.60;;;5.68;;
61373;SDS011;47242;48.158;-1.586;2023-06-10T18:59:00;7.55;;;5.45;;
61373;SDS011;47242;48.158;-1.586;2023-06-10T19:01:26;7.97;;;5.35;;